CDT,Max TemperatureF,Mean TemperatureF,Min TemperatureF,Max Dew PointF,MeanDew PointF,Min DewpointF,Max Humidity, Mean Humidity, Min Humidity, Max Sea Level PressureIn, Mean Sea Level PressureIn, Min Sea Level PressureIn, Max VisibilityMiles, Mean VisibilityMiles, Min VisibilityMiles, Max Wind SpeedMPH, Mean Wind SpeedMPH, Max Gust SpeedMPH,PrecipitationIn, CloudCover, Events, WindDirDegrees
2013-10-1,84,69,55,63,58,51,94,75,43,29.97,29.90,29.87,10,10,3,16,8,20,0.00,1,,197
2013-10-2,84,68,52,62,52,37,96,64,22,30.09,30.01,29.95,10,9,0,13,3,17,0.00,1,Fog,84
2013-10-3,80,72,64,68,65,61,95,85,65,29.94,29.88,29.81,10,8,2,18,6,25,0.14,5,Rain-Thunderstorm,159
2013-10-4,76,71,66,69,66,64,93,88,78,30.00,29.91,29.87,10,8,2,12,6,,0.52,4,Rain-Thunderstorm,102
2013-10-5,76,66,55,69,62,41,93,79,55,29.89,29.84,29.77,10,9,4,15,7,21,0.00,4,Rain,194
2013-10-6,55,48,43,43,40,36,91,73,52,29.82,29.77,29.72,10,10,10,13,7,17,0.00,4,Rain,228
2013-10-7,72,58,44,48,44,40,92,69,31,30.09,29.94,29.79,10,10,2,14,5,20,0.00,1,,275
2013-10-8,77,60,42,50,44,41,96,65,26,30.16,30.12,30.08,10,9,1,13,3,20,0.00,0,,180
2013-10-9,75,60,45,50,45,36,95,66,24,30.21,30.16,30.11,10,10,10,10,3,,0.00,0,,158
2013-10-10,77,59,41,53,48,40,96,72,36,30.17,30.09,30.01,10,9,2,10,4,10,0.00,0,,101
2013-10-11,79,64,51,57,52,50,95,67,37,30.03,29.96,29.88,10,9,2,23,7,29,0.00,1,,143
2013-10-12,69,56,43,58,47,35,85,61,31,30.20,30.00,29.89,10,10,10,14,7,23,0.00,2,,225
2013-10-13,64,49,35,45,37,32,97,70,30,30.42,30.35,30.21,10,9,0,9,2,,0.00,0,Fog,304
2013-10-14,66,49,32,44,39,31,99,68,37,30.41,30.28,30.07,10,10,3,14,5,22,0.00,0,,82
2013-10-15,66,58,51,60,48,41,93,73,53,30.07,29.88,29.77,10,9,4,16,10,26,0.11,6,Rain,192
2013-10-16,52,50,49,46,45,42,90,80,69,29.96,29.90,29.85,10,10,4,15,10,21,0.00,8,Rain,251
2013-10-17,59,50,39,46,42,34,93,77,39,29.94,29.88,29.83,10,9,2,9,4,,0.05,5,Rain,258
2013-10-18,51,43,36,42,38,34,93,74,55,29.97,29.93,29.84,10,10,10,15,6,22,0.00,6,,281
2013-10-19,54,45,38,39,36,32,91,72,44,29.94,29.85,29.78,10,10,10,20,4,26,0.00,5,Rain,238
2013-10-20,58,46,33,46,39,32,97,75,56,29.85,29.79,29.72,10,10,7,14,4,21,0.00,6,Rain,200
2013-10-21,50,40,28,41,29,21,88,61,37,29.99,29.95,29.82,10,10,10,20,11,28,0.00,4,,280
2013-10-22,39,32,25,37,31,24,97,93,88,30.00,29.97,29.92,10,8,1,9,1,,0.14,6,Rain-Snow,341
2013-10-23,44,38,31,32,30,24,94,73,48,30.05,30.02,29.97,10,10,10,12,7,17,0.00,7,,291
2013-10-24,43,35,26,32,25,21,94,63,46,30.34,30.21,30.05,10,10,5,16,7,22,0.00,5,,302
2013-10-25,53,38,24,32,25,22,94,62,31,30.40,30.26,30.04,10,10,7,18,5,25,0.00,1,,203
2013-10-26,53,42,31,34,29,25,88,55,36,30.11,29.99,29.88,10,10,10,18,12,25,0.00,1,,276
2013-10-27,56,41,26,32,29,25,96,68,33,30.10,30.02,29.93,10,10,10,14,3,18,0.00,0,,186
2013-10-28,56,42,30,39,34,28,92,73,54,30.37,30.23,30.03,10,10,10,17,6,22,0.00,1,,44
2013-10-29,59,48,36,41,36,30,87,64,42,30.35,30.23,30.10,10,10,10,12,7,16,0.00,4,,99
2013-10-30,59,52,46,57,51,41,96,90,80,30.10,29.96,29.74,10,4,1,22,5,30,0.53,7,Rain,121
2013-10-31,62,52,43,60,53,38,96,91,80,29.71,29.48,29.34,10,8,1,14,9,21,0.25,8,Rain,235